x

Buoy A01 - Mass. Bay/stellwagen (44029) Wave Buoy

6:04 - Mon 23rd Jan 2017 All times are EST. -5 hours from GMT.

  • Sig Wave height 8.5ft
  • Peak Period 7s
  • Wind
    25mph, 29mph gusts
  • Sea Temp 44°f
  • Air Temp 38°f
  • Sea Pressure 1016.2mb
  • Buoy A01 - Mass. Bay/stellwagen
  • Buoy A01 - Mass. Bay/stellwagen

More Historic Weather Station data

Upgrade to MSW Pro to gain access to the past 30 days of data for over 8000 Wavebouys and Weather Stations around the globe.

Join Pro

Comparision Forecast

View Surf forecast
   
lun. 01/23 6:04 8.5ft 7s 25 29 mph 1016.2mb 44f 38f
5:04  -   -  29 36 mph 1014.5mb 44f 38f
4:04 8ft 7s 31 43 mph 1015.7mb 44f 38f
3:04 8ft 7s 25 29 mph 1015.7mb 44f 40f
2:04 7.5ft 7s 27 31 mph 1014.9mb 44f 40f
1:04 7ft 7s 25 29 mph 1014.8mb 44f 41f
12:04 6ft 7s 25 29 mph 1014.5mb 44f 41f
dim. 01/22 11:04 6.5ft 7s 22 27 mph 1014.8mb 44f 42f
10:04  -   -  25 27 mph 1014.1mb 44f 42f
9:04 6ft 6s 22 27 mph 1013.8mb 44f 42f
8:04 5.5ft 6s 22 27 mph 1013mb 44f 42f
7:04  -   -  20 25 mph 1013mb 44f 42f
6:04 6ft 6s 22 27 mph 1011.7mb 44f 42f
5:04 5.5ft 5s 25 29 mph 1011mb 44f 42f
4:04 5.5ft 6s 22 25 mph 1010.8mb 44f 42f
3:04 5ft 6s 22 27 mph 1010.2mb 44f 42f
2:04 6ft 12s 18 20 mph 1009.8mb 44f 43f
1:04 4.5ft 11s 18 20 mph 1009.2mb 44f 44f
12:04 4ft 10s 18 20 mph 1008.5mb 44f 45f
11:04  -   -  13 16 mph 1009.1mb 44f 45f
10:04 4ft 11s 9 11 mph 1009.2mb 44f 45f
9:04 3.5ft 11s 7 9 mph 1008.6mb 44f 44f
8:04 2.5ft 11s 7 9 mph 1008mb 44f 44f
7:04 3.5ft 12s 4 7 mph 1008.2mb 44f 44f
6:04 3ft 12s 7 9 mph 1007.1mb 44f 44f
5:04 4ft 13s 7
mph
1006mb 44f 44f
4:04 3.5ft 12s 7
mph
1006.6mb 44f 44f
3:04 4.5ft 11s 7
mph
1006.8mb 44f 45f
2:04  -   -   -  mph - 44f -
1:04 5ft 13s 4 7 mph 1006.6mb 44f 45f
12:04 5ft 13s 4 7 mph 1006.8mb 44f 46f
sam. 01/21 11:04 4.5ft 11s 4 7 mph 1006.8mb 44f 46f
10:04 4.5ft 14s 7 9 mph 1006.9mb 44f 47f
9:04 4ft 11s 9 11 mph 1006.7mb 44f 47f
8:04 4ft 12s 7 9 mph 1006.7mb 44f 47f
7:04 5ft 12s 7
mph
1006.4mb 44f 48f
6:04 3.5ft 11s 7 9 mph 1006.4mb 44f 47f
5:04 4.5ft 12s 7
mph
1006.3mb 44f 47f
4:04 4.5ft 13s 11 13 mph 1005.8mb 44f 48f
3:04 4.5ft 11s 9 11 mph 1006.1mb 44f 47f
2:04 4.5ft 11s 9 11 mph 1006.4mb 44f 46f
1:04 5ft 10s 11 13 mph 1006.7mb 44f 44f
12:04  -   -  11 13 mph 1007.9mb 44f 43f
11:04 5ft 12s 13 16 mph 1009.1mb 44f 42f
10:04 5ft 11s 11 13 mph 1009.6mb 44f 42f
9:04 4.5ft 10s 13 16 mph 1010mb 44f 42f
8:04 5ft 11s 16 20 mph 1009.9mb 44f 42f
7:04 4.5ft 11s 13 16 mph 1009.5mb 44f 42f
6:04 3.5ft 12s 13 16 mph 1010.5mb 44f 41f
5:04 3.5ft 10s 9 13 mph 1010.9mb 44f 40f
4:04 3.5ft 9s 11 16 mph 1011.5mb 44f 40f
3:04 3.5ft 9s 11 13 mph 1011.7mb 44f 40f
2:04 3ft 11s 16 18 mph 1012.3mb 44f 40f
1:04 3.5ft 10s 13 16 mph 1012.5mb 44f 41f
12:04 3.5ft 10s 13 16 mph 1012.9mb 44f 41f
ven. 01/20 11:04 3.5ft 10s 9 11 mph 1013.2mb 44f 42f
10:04 3.5ft 8s 9 11 mph 1013.5mb 44f 41f
9:04  -   -  11 13 mph 1013.7mb 44f 42f
8:04 3.5ft 11s 9 11 mph 1013.8mb 44f 42f
7:04 3.5ft 10s 9 13 mph 1014.1mb 44f 42f
6:04 3.5ft 11s 7 9 mph 1013.7mb 45f 42f
5:04 3.5ft 8s 9 11 mph 1013.8mb 45f 41f
4:04 3.5ft 11s 7 9 mph 1014.2mb 44f 41f
3:04 3.5ft 11s 7 9 mph 1014.4mb 44f 40f
2:04 4ft 11s 7 9 mph 1014.6mb 44f 40f
1:04 4.5ft 11s 7 11 mph 1014.7mb 44f 40f
12:04 4ft 11s 4 7 mph 1015.7mb 44f 40f
11:04 4ft 11s 7 9 mph 1016.3mb 44f 40f
10:04 3.5ft 8s 7
mph
1016.8mb 44f 41f
9:04 4.5ft 10s 7 9 mph 1016.5mb 44f 41f
8:04 4ft 9s 9 11 mph 1015.9mb 44f 41f
7:04 4.5ft 11s 7
mph
1015.7mb 44f 41f
6:04 5ft 11s 9 11 mph 1015.5mb 44f 40f
5:04 5ft 11s 7 9 mph 1015.6mb 44f 40f
4:04 4.5ft 11s 7 9 mph 1015.2mb 44f 41f
3:04 4ft 9s 9 11 mph 1015.2mb 44f 42f
2:04 4.5ft 10s 13 16 mph 1014.9mb 44f 42f
1:04 5.5ft 9s 13 16 mph 1014.5mb 44f 41f
12:04 4.5ft 9s 16 18 mph 1015.4mb 44f 40f
jeu. 01/19 11:04 4.5ft 9s 18 20 mph 1016.3mb 44f 40f
10:04 5ft 10s 16 18 mph 1016.3mb 44f 41f
9:04 5ft 9s 13 16 mph 1015.8mb 44f 42f
8:04 5ft 10s 11 16 mph 1015.1mb 44f 42f
7:04 5ft 9s 13 18 mph 1014.9mb 44f 42f
6:04 5ft 9s 11 16 mph 1014.1mb 44f 43f
5:04 4.5ft 9s 13 18 mph 1013.2mb 44f 43f
4:04  -   -  13 16 mph 1013.2mb 44f 44f
3:04 5ft 9s 16 18 mph 1013.2mb 44f 43f
2:04 6ft 8s 16 20 mph 1012.9mb 44f 43f
1:04  -   -  9 13 mph 1013.4mb 44f 42f